createdAt,value
2019-05-03T15:38:55.312Z,3.12
2019-05-03T15:41:29.484Z,3.87
2019-05-03T15:44:05.310Z,3.00
2019-05-03T15:46:39.282Z,3.02
2019-05-03T15:49:15.109Z,2.83
2019-05-03T15:51:48.164Z,3.55
2019-05-03T15:54:21.366Z,2.80
2019-05-03T15:56:54.348Z,3.37
2019-05-03T15:59:28.043Z,3.45
2019-05-03T16:01:59.995Z,3.02
2019-05-03T16:04:32.896Z,3.20
2019-05-03T16:07:06.073Z,3.22
2019-05-03T16:09:38.546Z,3.20
2019-05-03T16:12:14.405Z,3.50
2019-05-03T16:14:46.710Z,3.20
2019-05-03T16:17:19.762Z,3.52
2019-05-03T16:19:52.337Z,3.25
2019-05-03T16:22:24.932Z,3.05
2019-05-03T16:24:59.481Z,3.20
2019-05-03T16:27:31.555Z,3.20
2019-05-03T16:30:05.222Z,3.55
2019-05-03T16:32:37.265Z,3.15
2019-05-03T16:35:09.555Z,3.47
2019-05-03T16:37:45.218Z,3.27
2019-05-03T16:40:17.930Z,3.50
2019-05-03T16:42:58.249Z,3.95
2019-05-03T16:45:31.626Z,3.47
2019-05-03T16:48:05.068Z,3.08
2019-05-03T16:50:39.130Z,3.30
2019-05-03T16:53:14.731Z,3.22
2019-05-03T16:55:48.731Z,3.67
2019-05-03T16:58:21.178Z,3.12
2019-05-03T17:00:55.311Z,3.37
2019-05-03T17:03:39.197Z,3.12
2019-05-03T17:06:14.839Z,3.37
2019-05-03T17:08:49.306Z,3.30
2019-05-03T17:11:24.275Z,3.47
2019-05-03T17:14:05.030Z,3.35
2019-05-03T17:16:39.020Z,3.33
2019-05-03T17:19:11.087Z,3.98
2019-05-03T17:21:45.277Z,3.62
2019-05-03T17:24:17.483Z,3.08
2019-05-03T17:27:00.251Z,3.45
2019-05-03T17:29:40.120Z,3.40
2019-05-03T17:32:25.944Z,3.52
2019-05-03T17:35:05.776Z,3.40
2019-05-03T17:37:40.576Z,3.40
2019-05-03T17:40:15.040Z,3.20
2019-05-03T17:42:48.911Z,3.55
2019-05-03T17:45:23.159Z,3.20
2019-05-03T17:47:56.005Z,3.20
2019-05-03T17:50:35.095Z,3.65
2019-05-03T17:53:10.121Z,3.05
2019-05-03T17:55:44.606Z,3.40
2019-05-03T17:58:19.287Z,4.03
2019-05-03T18:00:56.095Z,3.62
2019-05-03T18:03:29.548Z,3.58
2019-05-03T18:06:04.697Z,3.25
2019-05-03T18:08:45.152Z,3.60
2019-05-03T18:11:19.157Z,3.55
2019-05-03T18:13:57.942Z,3.00
2019-05-03T18:16:30.469Z,3.17
2019-05-03T18:19:10.806Z,3.15
2019-05-03T18:21:44.679Z,3.37
2019-05-03T18:24:17.584Z,3.20
2019-05-03T18:26:55.450Z,3.67
2019-05-03T18:29:38.635Z,3.80
2019-05-03T18:32:12.003Z,3.27
2019-05-03T18:34:48.624Z,3.83
2019-05-03T18:37:24.368Z,3.80
2019-05-03T18:39:56.764Z,3.42
2019-05-03T18:42:30.973Z,3.50
2019-05-03T18:45:05.066Z,3.42
2019-05-03T18:47:39.390Z,3.90
2019-05-03T18:50:12.001Z,3.45
2019-05-03T18:52:44.979Z,4.37
2019-05-03T18:55:17.671Z,3.70
2019-05-03T18:57:51.922Z,3.60
2019-05-03T19:00:25.060Z,4.05
2019-05-03T19:02:57.672Z,4.42
2019-05-03T19:05:31.944Z,4.00
2019-05-03T19:08:05.882Z,3.98
2019-05-03T19:10:47.859Z,3.98
2019-05-03T19:13:21.561Z,4.53
2019-05-03T19:16:01.000Z,3.90
2019-05-03T19:18:36.754Z,4.22
2019-05-03T19:21:09.139Z,4.33
2019-05-03T19:23:44.803Z,4.83
2019-05-03T19:26:16.973Z,3.95
2019-05-03T19:28:49.863Z,4.45
2019-05-03T19:31:25.106Z,4.33
2019-05-03T19:33:57.596Z,4.70
2019-05-03T19:36:30.769Z,4.47
2019-05-03T19:39:04.991Z,4.83
2019-05-03T19:41:39.356Z,4.50
2019-05-03T19:44:12.188Z,4.90
2019-05-03T19:46:49.875Z,4.55
2019-05-03T19:49:24.570Z,5.83
2019-05-03T19:51:57.926Z,5.25
2019-05-03T19:54:31.903Z,5.12
2019-05-03T19:57:05.054Z,4.35
2019-05-03T19:59:39.285Z,5.15
2019-05-03T20:02:15.025Z,5.08
2019-05-03T20:04:57.543Z,5.33
2019-05-03T20:07:25.173Z,5.10
2019-05-03T20:09:57.895Z,5.03
2019-05-03T20:12:30.315Z,4.67
2019-05-03T20:15:05.339Z,5.10
2019-05-03T20:17:38.330Z,5.05
2019-05-03T20:20:12.597Z,5.80
2019-05-03T20:22:47.702Z,5.10
2019-05-03T20:25:25.565Z,4.78
2019-05-03T20:28:00.143Z,4.87
2019-05-03T20:30:34.691Z,4.67
2019-05-03T20:33:08.931Z,5.40
2019-05-03T20:35:41.489Z,4.87
2019-05-03T20:38:15.232Z,5.58
2019-05-03T20:40:57.355Z,4.70
2019-05-03T20:43:38.717Z,5.12
2019-05-03T20:46:14.966Z,5.40
2019-05-03T20:48:49.402Z,5.08
2019-05-03T20:51:25.062Z,5.75
2019-05-03T20:53:57.565Z,5.80
2019-05-03T20:56:30.076Z,5.37
2019-05-03T20:59:02.839Z,5.47
2019-05-03T21:01:35.393Z,6.00
2019-05-03T21:04:07.641Z,6.10
2019-05-03T21:06:40.926Z,6.28
2019-05-03T21:09:15.214Z,6.15
2019-05-03T21:11:49.441Z,6.15
2019-05-03T21:14:22.061Z,5.35
2019-05-03T21:16:56.151Z,6.12
2019-05-03T21:19:32.635Z,6.00
2019-05-03T21:22:07.115Z,5.90
2019-05-03T21:24:41.467Z,6.03
2019-05-03T21:27:16.063Z,6.97
2019-05-03T21:29:50.412Z,6.67
2019-05-03T21:32:25.161Z,6.47
2019-05-03T21:34:57.309Z,5.28
2019-05-03T21:37:29.680Z,6.83
2019-05-03T21:40:01.810Z,6.90
2019-05-03T21:42:35.134Z,6.90
2019-05-03T21:45:16.994Z,6.37
2019-05-03T21:47:54.603Z,6.78
2019-05-03T21:50:27.048Z,6.58
2019-05-03T21:53:05.624Z,6.78
2019-05-03T21:55:37.897Z,6.83
2019-05-03T21:58:10.476Z,6.90
2019-05-03T22:00:45.380Z,6.72
2019-05-03T22:03:18.738Z,6.58
2019-05-03T22:05:55.276Z,6.53
2019-05-03T22:08:29.836Z,6.95
2019-05-03T22:11:02.470Z,6.83
2019-05-03T22:13:35.032Z,7.08
2019-05-03T22:16:09.589Z,5.67
2019-05-03T22:18:42.890Z,6.45
2019-05-03T22:21:16.420Z,7.17
2019-05-03T22:23:51.442Z,6.75
2019-05-03T22:26:26.477Z,6.97
2019-05-03T22:28:59.434Z,7.28
2019-05-03T22:31:34.878Z,6.30
2019-05-03T22:34:06.592Z,7.03
2019-05-03T22:36:39.630Z,5.87
2019-05-03T22:39:24.927Z,5.53
2019-05-03T22:41:57.501Z,5.45
2019-05-03T22:44:29.848Z,5.05
2019-05-03T22:47:05.362Z,5.22
2019-05-03T22:49:38.255Z,5.28
2019-05-03T22:52:20.131Z,5.20
2019-05-03T22:54:52.816Z,4.80
2019-05-03T22:57:26.108Z,5.65
2019-05-03T22:59:59.484Z,5.53
2019-05-03T23:02:32.331Z,5.58
2019-05-03T23:05:05.096Z,5.97
2019-05-03T23:07:37.705Z,5.10
2019-05-03T23:10:10.199Z,6.20
2019-05-03T23:12:45.193Z,5.67
2019-05-03T23:15:17.912Z,5.83
2019-05-03T23:17:50.832Z,5.40
2019-05-03T23:20:27.354Z,6.28
2019-05-03T23:23:05.414Z,6.17
2019-05-03T23:25:38.324Z,6.03
2019-05-03T23:28:11.767Z,6.20
2019-05-03T23:30:43.673Z,6.05
2019-05-03T23:33:16.596Z,5.42
2019-05-03T23:35:49.496Z,5.80
2019-05-03T23:38:24.667Z,5.28
2019-05-03T23:40:57.133Z,6.42
2019-05-03T23:43:33.188Z,6.62
2019-05-03T23:46:05.158Z,6.83
2019-05-03T23:48:44.532Z,6.60
2019-05-03T23:51:20.438Z,6.72
2019-05-03T23:53:57.063Z,6.12
2019-05-03T23:56:31.165Z,4.67
2019-05-03T23:59:05.573Z,5.37
